sensor_id;sensor_type;location;lat;lon;timestamp;P1;durP1;ratioP1;P2;durP2;ratioP2
29730;SDS011;16639;51.488;0.152;2023-02-04T00:01:35;17.58;;;6.63;;
29730;SDS011;16639;51.488;0.152;2023-02-04T00:04:03;13.20;;;6.78;;
29730;SDS011;16639;51.488;0.152;2023-02-04T00:06:32;15.68;;;6.70;;
29730;SDS011;16639;51.488;0.152;2023-02-04T00:08:59;15.38;;;7.05;;
29730;SDS011;16639;51.488;0.152;2023-02-04T00:11:27;15.10;;;7.50;;
29730;SDS011;16639;51.488;0.152;2023-02-04T00:13:57;15.15;;;7.05;;
29730;SDS011;16639;51.488;0.152;2023-02-04T00:16:25;12.57;;;7.18;;
29730;SDS011;16639;51.488;0.152;2023-02-04T00:18:52;13.30;;;6.65;;
29730;SDS011;16639;51.488;0.152;2023-02-04T00:21:21;19.65;;;7.00;;
29730;SDS011;16639;51.488;0.152;2023-02-04T00:23:48;8.98;;;6.13;;
29730;SDS011;16639;51.488;0.152;2023-02-04T00:26:16;15.00;;;6.32;;
29730;SDS011;16639;51.488;0.152;2023-02-04T00:28:44;13.48;;;6.35;;
29730;SDS011;16639;51.488;0.152;2023-02-04T00:31:11;18.48;;;7.18;;
29730;SDS011;16639;51.488;0.152;2023-02-04T00:33:40;11.27;;;5.90;;
29730;SDS011;16639;51.488;0.152;2023-02-04T00:36:09;12.45;;;6.10;;
29730;SDS011;16639;51.488;0.152;2023-02-04T00:38:36;13.43;;;5.82;;
29730;SDS011;16639;51.488;0.152;2023-02-04T00:41:04;10.52;;;5.85;;
29730;SDS011;16639;51.488;0.152;2023-02-04T00:43:32;13.98;;;6.15;;
29730;SDS011;16639;51.488;0.152;2023-02-04T00:46:00;17.17;;;7.30;;
29730;SDS011;16639;51.488;0.152;2023-02-04T00:48:27;16.60;;;6.60;;
29730;SDS011;16639;51.488;0.152;2023-02-04T00:50:54;18.40;;;7.65;;
29730;SDS011;16639;51.488;0.152;2023-02-04T00:53:22;11.80;;;6.60;;
29730;SDS011;16639;51.488;0.152;2023-02-04T00:55:49;12.27;;;7.40;;
29730;SDS011;16639;51.488;0.152;2023-02-04T00:58:17;16.30;;;6.90;;
29730;SDS011;16639;51.488;0.152;2023-02-04T01:00:44;13.27;;;6.90;;
29730;SDS011;16639;51.488;0.152;2023-02-04T01:03:12;11.50;;;7.85;;
29730;SDS011;16639;51.488;0.152;2023-02-04T01:05:39;16.17;;;7.80;;
29730;SDS011;16639;51.488;0.152;2023-02-04T01:12:26;12.95;;;7.60;;
29730;SDS011;16639;51.488;0.152;2023-02-04T01:15:34;21.75;;;8.70;;
29730;SDS011;16639;51.488;0.152;2023-02-04T01:18:01;13.35;;;7.80;;
29730;SDS011;16639;51.488;0.152;2023-02-04T01:20:29;15.18;;;7.75;;
29730;SDS011;16639;51.488;0.152;2023-02-04T01:22:58;15.68;;;7.32;;
29730;SDS011;16639;51.488;0.152;2023-02-04T01:25:25;13.77;;;7.93;;
29730;SDS011;16639;51.488;0.152;2023-02-04T01:27:52;16.75;;;9.18;;
29730;SDS011;16639;51.488;0.152;2023-02-04T01:30:20;16.30;;;9.50;;
29730;SDS011;16639;51.488;0.152;2023-02-04T01:32:49;17.23;;;8.02;;
29730;SDS011;16639;51.488;0.152;2023-02-04T01:35:16;16.17;;;8.95;;
29730;SDS011;16639;51.488;0.152;2023-02-04T01:37:43;13.65;;;8.70;;
29730;SDS011;16639;51.488;0.152;2023-02-04T01:40:11;14.48;;;8.52;;
29730;SDS011;16639;51.488;0.152;2023-02-04T01:42:41;21.23;;;9.13;;
29730;SDS011;16639;51.488;0.152;2023-02-04T02:00:41;25.67;;;9.07;;
29730;SDS011;16639;51.488;0.152;2023-02-04T02:03:09;17.33;;;9.02;;
29730;SDS011;16639;51.488;0.152;2023-02-04T02:08:19;27.67;;;10.25;;
29730;SDS011;16639;51.488;0.152;2023-02-04T02:10:47;18.92;;;8.65;;
29730;SDS011;16639;51.488;0.152;2023-02-04T02:13:16;16.48;;;9.95;;
29730;SDS011;16639;51.488;0.152;2023-02-04T02:15:46;12.55;;;8.25;;
29730;SDS011;16639;51.488;0.152;2023-02-04T02:18:13;18.80;;;10.30;;
29730;SDS011;16639;51.488;0.152;2023-02-04T02:20:42;15.95;;;10.20;;
29730;SDS011;16639;51.488;0.152;2023-02-04T02:25:50;18.75;;;10.55;;
29730;SDS011;16639;51.488;0.152;2023-02-04T02:28:18;20.88;;;9.23;;
29730;SDS011;16639;51.488;0.152;2023-02-04T02:30:48;18.08;;;9.32;;
29730;SDS011;16639;51.488;0.152;2023-02-04T02:33:17;21.85;;;10.15;;
29730;SDS011;16639;51.488;0.152;2023-02-04T02:35:46;20.48;;;11.50;;
29730;SDS011;16639;51.488;0.152;2023-02-04T02:38:15;20.58;;;11.27;;
29730;SDS011;16639;51.488;0.152;2023-02-04T02:40:44;24.80;;;11.18;;
29730;SDS011;16639;51.488;0.152;2023-02-04T02:43:16;21.63;;;11.27;;
29730;SDS011;16639;51.488;0.152;2023-02-04T02:45:47;19.23;;;10.95;;
29730;SDS011;16639;51.488;0.152;2023-02-04T02:48:15;24.52;;;10.40;;
29730;SDS011;16639;51.488;0.152;2023-02-04T02:50:44;19.73;;;9.18;;
29730;SDS011;16639;51.488;0.152;2023-02-04T02:53:12;18.60;;;10.82;;
29730;SDS011;16639;51.488;0.152;2023-02-04T02:55:44;20.20;;;8.90;;
29730;SDS011;16639;51.488;0.152;2023-02-04T02:58:17;18.42;;;9.90;;
29730;SDS011;16639;51.488;0.152;2023-02-04T03:00:59;24.75;;;11.25;;
29730;SDS011;16639;51.488;0.152;2023-02-04T03:03:31;17.52;;;9.77;;
29730;SDS011;16639;51.488;0.152;2023-02-04T03:06:03;22.58;;;11.02;;
29730;SDS011;16639;51.488;0.152;2023-02-04T03:08:38;23.20;;;11.20;;
29730;SDS011;16639;51.488;0.152;2023-02-04T03:11:07;21.08;;;9.32;;
29730;SDS011;16639;51.488;0.152;2023-02-04T03:13:34;18.77;;;10.73;;
29730;SDS011;16639;51.488;0.152;2023-02-04T03:16:03;20.52;;;10.60;;
29730;SDS011;16639;51.488;0.152;2023-02-04T03:18:31;15.82;;;9.82;;
29730;SDS011;16639;51.488;0.152;2023-02-04T03:21:01;18.25;;;10.13;;
29730;SDS011;16639;51.488;0.152;2023-02-04T03:23:32;21.60;;;10.32;;
29730;SDS011;16639;51.488;0.152;2023-02-04T03:26:01;16.67;;;9.23;;
29730;SDS011;16639;51.488;0.152;2023-02-04T03:28:29;18.50;;;8.75;;
29730;SDS011;16639;51.488;0.152;2023-02-04T03:30:57;18.65;;;9.05;;
29730;SDS011;16639;51.488;0.152;2023-02-04T03:33:26;20.63;;;10.18;;
29730;SDS011;16639;51.488;0.152;2023-02-04T03:35:57;16.30;;;9.32;;
29730;SDS011;16639;51.488;0.152;2023-02-04T03:38:25;20.45;;;9.82;;
29730;SDS011;16639;51.488;0.152;2023-02-04T03:40:53;20.60;;;11.30;;
29730;SDS011;16639;51.488;0.152;2023-02-04T03:43:20;20.25;;;10.27;;
29730;SDS011;16639;51.488;0.152;2023-02-04T03:45:47;15.75;;;8.75;;
29730;SDS011;16639;51.488;0.152;2023-02-04T03:48:15;22.88;;;10.43;;
29730;SDS011;16639;51.488;0.152;2023-02-04T03:50:42;18.67;;;8.25;;
29730;SDS011;16639;51.488;0.152;2023-02-04T03:53:10;16.23;;;8.18;;
29730;SDS011;16639;51.488;0.152;2023-02-04T03:55:39;12.77;;;7.03;;
29730;SDS011;16639;51.488;0.152;2023-02-04T03:58:06;16.13;;;7.72;;
29730;SDS011;16639;51.488;0.152;2023-02-04T04:00:34;17.02;;;7.50;;
29730;SDS011;16639;51.488;0.152;2023-02-04T04:03:01;16.15;;;7.00;;
29730;SDS011;16639;51.488;0.152;2023-02-04T04:05:29;12.75;;;7.65;;
29730;SDS011;16639;51.488;0.152;2023-02-04T04:07:56;13.65;;;7.70;;
29730;SDS011;16639;51.488;0.152;2023-02-04T04:10:23;14.52;;;7.57;;
29730;SDS011;16639;51.488;0.152;2023-02-04T04:12:51;12.27;;;6.60;;
29730;SDS011;16639;51.488;0.152;2023-02-04T04:15:18;13.40;;;7.07;;
29730;SDS011;16639;51.488;0.152;2023-02-04T04:17:46;21.55;;;8.13;;
29730;SDS011;16639;51.488;0.152;2023-02-04T04:20:13;12.90;;;7.03;;
29730;SDS011;16639;51.488;0.152;2023-02-04T04:22:41;13.50;;;6.95;;
29730;SDS011;16639;51.488;0.152;2023-02-04T04:25:08;16.83;;;9.68;;
29730;SDS011;16639;51.488;0.152;2023-02-04T04:27:36;14.88;;;7.82;;
29730;SDS011;16639;51.488;0.152;2023-02-04T04:30:03;11.75;;;6.90;;
29730;SDS011;16639;51.488;0.152;2023-02-04T04:32:31;12.43;;;7.13;;
29730;SDS011;16639;51.488;0.152;2023-02-04T04:34:58;14.50;;;6.72;;
29730;SDS011;16639;51.488;0.152;2023-02-04T04:37:25;10.07;;;6.95;;
29730;SDS011;16639;51.488;0.152;2023-02-04T04:39:53;12.25;;;6.90;;
29730;SDS011;16639;51.488;0.152;2023-02-04T04:42:20;10.68;;;6.72;;
29730;SDS011;16639;51.488;0.152;2023-02-04T04:44:48;11.88;;;6.85;;
29730;SDS011;16639;51.488;0.152;2023-02-04T04:47:16;13.48;;;7.80;;
29730;SDS011;16639;51.488;0.152;2023-02-04T04:49:43;16.10;;;7.88;;
29730;SDS011;16639;51.488;0.152;2023-02-04T04:52:10;13.55;;;8.68;;
29730;SDS011;16639;51.488;0.152;2023-02-04T04:54:38;13.68;;;7.63;;
29730;SDS011;16639;51.488;0.152;2023-02-04T04:57:06;16.83;;;9.13;;
29730;SDS011;16639;51.488;0.152;2023-02-04T04:59:33;17.02;;;8.80;;
29730;SDS011;16639;51.488;0.152;2023-02-04T05:02:00;21.52;;;10.63;;
29730;SDS011;16639;51.488;0.152;2023-02-04T05:04:28;19.00;;;8.32;;
29730;SDS011;16639;51.488;0.152;2023-02-04T05:06:56;14.30;;;8.70;;
29730;SDS011;16639;51.488;0.152;2023-02-04T05:09:23;16.50;;;9.88;;
29730;SDS011;16639;51.488;0.152;2023-02-04T05:11:50;18.10;;;10.32;;
29730;SDS011;16639;51.488;0.152;2023-02-04T05:14:18;16.95;;;10.93;;
29730;SDS011;16639;51.488;0.152;2023-02-04T05:16:47;23.15;;;12.38;;
29730;SDS011;16639;51.488;0.152;2023-02-04T05:19:14;22.67;;;12.18;;
29730;SDS011;16639;51.488;0.152;2023-02-04T05:21:41;28.25;;;12.38;;
29730;SDS011;16639;51.488;0.152;2023-02-04T05:24:09;28.42;;;12.63;;
29730;SDS011;16639;51.488;0.152;2023-02-04T05:26:36;22.48;;;12.60;;
29730;SDS011;16639;51.488;0.152;2023-02-04T05:29:03;23.70;;;12.70;;
29730;SDS011;16639;51.488;0.152;2023-02-04T05:31:31;23.50;;;12.52;;
29730;SDS011;16639;51.488;0.152;2023-02-04T05:34:00;22.13;;;12.82;;
29730;SDS011;16639;51.488;0.152;2023-02-04T05:36:27;19.58;;;11.75;;
29730;SDS011;16639;51.488;0.152;2023-02-04T05:38:55;25.30;;;13.65;;
29730;SDS011;16639;51.488;0.152;2023-02-04T05:41:22;21.42;;;13.05;;
29730;SDS011;16639;51.488;0.152;2023-02-04T05:43:50;22.58;;;12.48;;
29730;SDS011;16639;51.488;0.152;2023-02-04T05:46:17;20.90;;;13.32;;
29730;SDS011;16639;51.488;0.152;2023-02-04T05:48:44;23.20;;;12.88;;
29730;SDS011;16639;51.488;0.152;2023-02-04T05:51:12;21.02;;;13.90;;
29730;SDS011;16639;51.488;0.152;2023-02-04T05:53:39;21.08;;;14.40;;
29730;SDS011;16639;51.488;0.152;2023-02-04T05:56:07;26.55;;;15.00;;
29730;SDS011;16639;51.488;0.152;2023-02-04T05:58:37;26.25;;;15.35;;
29730;SDS011;16639;51.488;0.152;2023-02-04T06:01:05;27.85;;;14.52;;
29730;SDS011;16639;51.488;0.152;2023-02-04T06:03:33;28.80;;;15.35;;
29730;SDS011;16639;51.488;0.152;2023-02-04T06:06:00;30.27;;;14.88;;
29730;SDS011;16639;51.488;0.152;2023-02-04T06:08:28;26.30;;;14.63;;
29730;SDS011;16639;51.488;0.152;2023-02-04T06:10:55;32.80;;;16.55;;
29730;SDS011;16639;51.488;0.152;2023-02-04T06:13:23;22.90;;;13.77;;
29730;SDS011;16639;51.488;0.152;2023-02-04T06:15:50;27.85;;;14.52;;
29730;SDS011;16639;51.488;0.152;2023-02-04T06:18:18;22.17;;;14.18;;
29730;SDS011;16639;51.488;0.152;2023-02-04T06:20:45;26.08;;;13.48;;
29730;SDS011;16639;51.488;0.152;2023-02-04T06:23:12;26.75;;;13.88;;
29730;SDS011;16639;51.488;0.152;2023-02-04T06:25:40;23.63;;;13.40;;
29730;SDS011;16639;51.488;0.152;2023-02-04T06:28:07;20.83;;;13.63;;
29730;SDS011;16639;51.488;0.152;2023-02-04T06:30:35;22.95;;;12.23;;
29730;SDS011;16639;51.488;0.152;2023-02-04T06:33:05;25.85;;;14.38;;
29730;SDS011;16639;51.488;0.152;2023-02-04T06:35:34;22.20;;;13.10;;
29730;SDS011;16639;51.488;0.152;2023-02-04T06:38:02;21.85;;;13.73;;
29730;SDS011;16639;51.488;0.152;2023-02-04T06:40:29;19.75;;;12.00;;
29730;SDS011;16639;51.488;0.152;2023-02-04T06:42:57;21.77;;;11.68;;
29730;SDS011;16639;51.488;0.152;2023-02-04T06:45:24;17.90;;;11.70;;
29730;SDS011;16639;51.488;0.152;2023-02-04T06:47:52;20.70;;;12.00;;
29730;SDS011;16639;51.488;0.152;2023-02-04T06:50:19;20.05;;;12.00;;
29730;SDS011;16639;51.488;0.152;2023-02-04T06:52:47;22.00;;;11.75;;
29730;SDS011;16639;51.488;0.152;2023-02-04T06:55:15;19.83;;;11.65;;
29730;SDS011;16639;51.488;0.152;2023-02-04T06:57:42;22.58;;;11.25;;
29730;SDS011;16639;51.488;0.152;2023-02-04T07:00:11;21.20;;;12.60;;
29730;SDS011;16639;51.488;0.152;2023-02-04T07:02:39;21.23;;;11.52;;
29730;SDS011;16639;51.488;0.152;2023-02-04T07:05:08;22.20;;;11.25;;
29730;SDS011;16639;51.488;0.152;2023-02-04T07:07:35;24.90;;;11.95;;
29730;SDS011;16639;51.488;0.152;2023-02-04T07:10:03;17.17;;;11.15;;
29730;SDS011;16639;51.488;0.152;2023-02-04T07:12:30;23.23;;;11.43;;
29730;SDS011;16639;51.488;0.152;2023-02-04T07:14:58;18.40;;;11.57;;
29730;SDS011;16639;51.488;0.152;2023-02-04T07:17:26;22.50;;;12.25;;
29730;SDS011;16639;51.488;0.152;2023-02-04T07:19:53;19.45;;;12.23;;
29730;SDS011;16639;51.488;0.152;2023-02-04T07:22:20;20.05;;;11.68;;
29730;SDS011;16639;51.488;0.152;2023-02-04T07:24:48;20.20;;;12.55;;
29730;SDS011;16639;51.488;0.152;2023-02-04T07:27:15;18.63;;;12.23;;
29730;SDS011;16639;51.488;0.152;2023-02-04T07:29:42;20.63;;;12.68;;
29730;SDS011;16639;51.488;0.152;2023-02-04T07:32:10;22.33;;;12.68;;
29730;SDS011;16639;51.488;0.152;2023-02-04T07:34:37;19.77;;;12.65;;
29730;SDS011;16639;51.488;0.152;2023-02-04T07:37:05;22.60;;;11.82;;
29730;SDS011;16639;51.488;0.152;2023-02-04T07:39:32;21.98;;;11.93;;
29730;SDS011;16639;51.488;0.152;2023-02-04T07:41:59;20.67;;;13.30;;
29730;SDS011;16639;51.488;0.152;2023-02-04T07:44:27;18.73;;;12.18;;
29730;SDS011;16639;51.488;0.152;2023-02-04T07:46:54;19.95;;;11.55;;
29730;SDS011;16639;51.488;0.152;2023-02-04T07:49:22;18.80;;;12.02;;
29730;SDS011;16639;51.488;0.152;2023-02-04T07:51:50;23.15;;;12.30;;
29730;SDS011;16639;51.488;0.152;2023-02-04T07:54:18;20.80;;;12.35;;
29730;SDS011;16639;51.488;0.152;2023-02-04T07:56:45;22.58;;;12.68;;
29730;SDS011;16639;51.488;0.152;2023-02-04T07:59:13;22.83;;;14.25;;
29730;SDS011;16639;51.488;0.152;2023-02-04T08:01:40;19.02;;;12.25;;
29730;SDS011;16639;51.488;0.152;2023-02-04T08:04:08;19.52;;;12.48;;
29730;SDS011;16639;51.488;0.152;2023-02-04T08:06:35;25.63;;;13.77;;
29730;SDS011;16639;51.488;0.152;2023-02-04T08:09:03;21.38;;;13.02;;
29730;SDS011;16639;51.488;0.152;2023-02-04T08:11:31;23.10;;;13.55;;
29730;SDS011;16639;51.488;0.152;2023-02-04T08:13:58;23.20;;;12.63;;
29730;SDS011;16639;51.488;0.152;2023-02-04T08:16:26;20.58;;;12.30;;
29730;SDS011;16639;51.488;0.152;2023-02-04T08:18:54;20.83;;;11.57;;
29730;SDS011;16639;51.488;0.152;2023-02-04T08:21:21;21.30;;;13.48;;
29730;SDS011;16639;51.488;0.152;2023-02-04T08:23:48;17.60;;;11.80;;
29730;SDS011;16639;51.488;0.152;2023-02-04T08:26:16;23.95;;;12.52;;
29730;SDS011;16639;51.488;0.152;2023-02-04T08:28:43;19.38;;;11.75;;
29730;SDS011;16639;51.488;0.152;2023-02-04T08:31:10;18.75;;;10.60;;
29730;SDS011;16639;51.488;0.152;2023-02-04T08:33:38;19.08;;;11.52;;
29730;SDS011;16639;51.488;0.152;2023-02-04T08:36:05;17.38;;;11.45;;
29730;SDS011;16639;51.488;0.152;2023-02-04T08:38:33;16.52;;;11.02;;
29730;SDS011;16639;51.488;0.152;2023-02-04T08:41:01;17.00;;;10.15;;
29730;SDS011;16639;51.488;0.152;2023-02-04T08:43:29;14.73;;;9.27;;
29730;SDS011;16639;51.488;0.152;2023-02-04T08:45:59;15.30;;;8.63;;
29730;SDS011;16639;51.488;0.152;2023-02-04T08:48:28;15.18;;;8.20;;
29730;SDS011;16639;51.488;0.152;2023-02-04T08:50:56;13.73;;;8.90;;
29730;SDS011;16639;51.488;0.152;2023-02-04T08:53:23;13.02;;;8.07;;
29730;SDS011;16639;51.488;0.152;2023-02-04T08:55:51;14.00;;;8.45;;
29730;SDS011;16639;51.488;0.152;2023-02-04T08:58:18;19.52;;;8.38;;
29730;SDS011;16639;51.488;0.152;2023-02-04T09:00:46;13.30;;;7.93;;
29730;SDS011;16639;51.488;0.152;2023-02-04T09:03:13;14.77;;;7.65;;
29730;SDS011;16639;51.488;0.152;2023-02-04T09:05:40;12.80;;;8.50;;
29730;SDS011;16639;51.488;0.152;2023-02-04T09:08:08;14.73;;;8.50;;
29730;SDS011;16639;51.488;0.152;2023-02-04T09:10:35;15.48;;;8.73;;
29730;SDS011;16639;51.488;0.152;2023-02-04T09:13:03;15.93;;;9.45;;
29730;SDS011;16639;51.488;0.152;2023-02-04T09:15:30;12.90;;;7.38;;
29730;SDS011;16639;51.488;0.152;2023-02-04T09:17:58;10.02;;;7.40;;
29730;SDS011;16639;51.488;0.152;2023-02-04T09:20:37;11.02;;;7.45;;
29730;SDS011;16639;51.488;0.152;2023-02-04T09:23:04;13.50;;;8.85;;
29730;SDS011;16639;51.488;0.152;2023-02-04T09:25:41;14.90;;;9.02;;
29730;SDS011;16639;51.488;0.152;2023-02-04T09:28:10;13.55;;;9.27;;
29730;SDS011;16639;51.488;0.152;2023-02-04T09:30:39;14.20;;;8.90;;
29730;SDS011;16639;51.488;0.152;2023-02-04T09:33:08;15.70;;;10.70;;
29730;SDS011;16639;51.488;0.152;2023-02-04T09:35:36;20.80;;;10.70;;
29730;SDS011;16639;51.488;0.152;2023-02-04T09:38:04;22.30;;;10.55;;
29730;SDS011;16639;51.488;0.152;2023-02-04T09:40:32;17.85;;;10.20;;
29730;SDS011;16639;51.488;0.152;2023-02-04T09:43:03;16.20;;;9.48;;
29730;SDS011;16639;51.488;0.152;2023-02-04T09:45:33;17.35;;;9.30;;
29730;SDS011;16639;51.488;0.152;2023-02-04T09:48:02;16.65;;;11.43;;
29730;SDS011;16639;51.488;0.152;2023-02-04T09:50:31;14.05;;;8.20;;
29730;SDS011;16639;51.488;0.152;2023-02-04T09:53:01;15.25;;;10.32;;
29730;SDS011;16639;51.488;0.152;2023-02-04T09:55:33;15.05;;;9.93;;
29730;SDS011;16639;51.488;0.152;2023-02-04T09:58:13;14.65;;;8.95;;
29730;SDS011;16639;51.488;0.152;2023-02-04T10:00:55;14.25;;;8.52;;
29730;SDS011;16639;51.488;0.152;2023-02-04T10:03:43;14.25;;;9.18;;
29730;SDS011;16639;51.488;0.152;2023-02-04T10:06:13;17.95;;;8.75;;
29730;SDS011;16639;51.488;0.152;2023-02-04T10:08:43;13.98;;;8.13;;
29730;SDS011;16639;51.488;0.152;2023-02-04T10:11:11;15.30;;;8.23;;
29730;SDS011;16639;51.488;0.152;2023-02-04T10:13:41;16.00;;;7.75;;
29730;SDS011;16639;51.488;0.152;2023-02-04T10:16:20;20.80;;;9.27;;
29730;SDS011;16639;51.488;0.152;2023-02-04T10:18:56;13.20;;;8.10;;
29730;SDS011;16639;51.488;0.152;2023-02-04T10:21:38;12.98;;;8.13;;
29730;SDS011;16639;51.488;0.152;2023-02-04T10:24:10;13.07;;;8.75;;
29730;SDS011;16639;51.488;0.152;2023-02-04T10:26:52;10.07;;;8.30;;
29730;SDS011;16639;51.488;0.152;2023-02-04T10:29:21;16.30;;;8.60;;
29730;SDS011;16639;51.488;0.152;2023-02-04T10:31:51;12.40;;;8.25;;
29730;SDS011;16639;51.488;0.152;2023-02-04T10:34:20;11.27;;;7.80;;
29730;SDS011;16639;51.488;0.152;2023-02-04T10:36:52;13.00;;;7.57;;
29730;SDS011;16639;51.488;0.152;2023-02-04T10:39:24;11.70;;;7.05;;
29730;SDS011;16639;51.488;0.152;2023-02-04T10:41:56;12.82;;;8.30;;
29730;SDS011;16639;51.488;0.152;2023-02-04T10:44:27;12.50;;;7.65;;
29730;SDS011;16639;51.488;0.152;2023-02-04T10:49:58;10.35;;;6.55;;
29730;SDS011;16639;51.488;0.152;2023-02-04T10:52:36;12.57;;;6.18;;
29730;SDS011;16639;51.488;0.152;2023-02-04T10:55:27;9.27;;;5.78;;
29730;SDS011;16639;51.488;0.152;2023-02-04T10:57:53;12.40;;;5.88;;
29730;SDS011;16639;51.488;0.152;2023-02-04T11:00:22;12.68;;;7.05;;
29730;SDS011;16639;51.488;0.152;2023-02-04T11:05:30;9.07;;;6.15;;
29730;SDS011;16639;51.488;0.152;2023-02-04T11:08:00;11.77;;;5.32;;
29730;SDS011;16639;51.488;0.152;2023-02-04T11:10:29;10.20;;;5.30;;
29730;SDS011;16639;51.488;0.152;2023-02-04T11:13:01;11.40;;;5.63;;
29730;SDS011;16639;51.488;0.152;2023-02-04T11:20:47;8.35;;;5.07;;
29730;SDS011;16639;51.488;0.152;2023-02-04T11:28:37;7.50;;;4.53;;
29730;SDS011;16639;51.488;0.152;2023-02-04T11:33:48;10.90;;;4.50;;
29730;SDS011;16639;51.488;0.152;2023-02-04T11:36:17;11.13;;;5.35;;
29730;SDS011;16639;51.488;0.152;2023-02-04T11:38:44;10.95;;;5.70;;
29730;SDS011;16639;51.488;0.152;2023-02-04T11:41:32;7.30;;;4.20;;
29730;SDS011;16639;51.488;0.152;2023-02-04T11:43:59;8.95;;;4.82;;
29730;SDS011;16639;51.488;0.152;2023-02-04T11:46:27;9.55;;;4.85;;
29730;SDS011;16639;51.488;0.152;2023-02-04T11:48:56;7.10;;;4.10;;
29730;SDS011;16639;51.488;0.152;2023-02-04T11:51:31;4.78;;;3.53;;
29730;SDS011;16639;51.488;0.152;2023-02-04T11:53:59;4.82;;;3.65;;
29730;SDS011;16639;51.488;0.152;2023-02-04T11:56:28;6.20;;;3.78;;
29730;SDS011;16639;51.488;0.152;2023-02-04T11:58:56;5.60;;;3.45;;
29730;SDS011;16639;51.488;0.152;2023-02-04T12:01:29;8.15;;;3.53;;
29730;SDS011;16639;51.488;0.152;2023-02-04T12:03:58;18.92;;;3.90;;
29730;SDS011;16639;51.488;0.152;2023-02-04T12:06:32;5.93;;;3.53;;
29730;SDS011;16639;51.488;0.152;2023-02-04T12:11:56;4.65;;;3.13;;
29730;SDS011;16639;51.488;0.152;2023-02-04T12:14:32;4.25;;;3.03;;
29730;SDS011;16639;51.488;0.152;2023-02-04T12:17:14;8.40;;;3.75;;
29730;SDS011;16639;51.488;0.152;2023-02-04T12:19:43;7.40;;;4.32;;
29730;SDS011;16639;51.488;0.152;2023-02-04T12:22:11;16.65;;;5.40;;
29730;SDS011;16639;51.488;0.152;2023-02-04T12:24:40;9.60;;;3.67;;
29730;SDS011;16639;51.488;0.152;2023-02-04T12:27:08;5.25;;;3.05;;
29730;SDS011;16639;51.488;0.152;2023-02-04T12:29:35;10.48;;;4.05;;
29730;SDS011;16639;51.488;0.152;2023-02-04T12:32:03;7.97;;;2.25;;
29730;SDS011;16639;51.488;0.152;2023-02-04T12:34:30;5.45;;;1.48;;
29730;SDS011;16639;51.488;0.152;2023-02-04T12:36:58;7.65;;;2.92;;
29730;SDS011;16639;51.488;0.152;2023-02-04T12:39:25;6.32;;;2.20;;
29730;SDS011;16639;51.488;0.152;2023-02-04T12:41:54;3.90;;;1.80;;
29730;SDS011;16639;51.488;0.152;2023-02-04T12:44:21;4.28;;;1.58;;
29730;SDS011;16639;51.488;0.152;2023-02-04T12:46:48;8.05;;;2.42;;
29730;SDS011;16639;51.488;0.152;2023-02-04T12:49:17;7.80;;;2.28;;
29730;SDS011;16639;51.488;0.152;2023-02-04T12:51:44;3.53;;;2.10;;
29730;SDS011;16639;51.488;0.152;2023-02-04T12:54:11;3.75;;;2.35;;
29730;SDS011;16639;51.488;0.152;2023-02-04T12:56:39;2.22;;;1.60;;
29730;SDS011;16639;51.488;0.152;2023-02-04T12:59:06;6.65;;;2.15;;
29730;SDS011;16639;51.488;0.152;2023-02-04T13:01:33;9.43;;;2.05;;
29730;SDS011;16639;51.488;0.152;2023-02-04T13:04:01;3.88;;;1.90;;
29730;SDS011;16639;51.488;0.152;2023-02-04T13:06:29;2.45;;;1.30;;
29730;SDS011;16639;51.488;0.152;2023-02-04T13:08:56;5.07;;;2.00;;
29730;SDS011;16639;51.488;0.152;2023-02-04T13:11:23;2.25;;;1.90;;
29730;SDS011;16639;51.488;0.152;2023-02-04T13:13:51;3.60;;;2.35;;
29730;SDS011;16639;51.488;0.152;2023-02-04T13:16:18;5.03;;;2.08;;
29730;SDS011;16639;51.488;0.152;2023-02-04T13:18:48;6.72;;;2.25;;
29730;SDS011;16639;51.488;0.152;2023-02-04T13:21:16;4.15;;;2.85;;
29730;SDS011;16639;51.488;0.152;2023-02-04T13:23:43;5.07;;;2.65;;
29730;SDS011;16639;51.488;0.152;2023-02-04T13:26:11;11.68;;;3.60;;
29730;SDS011;16639;51.488;0.152;2023-02-04T13:28:38;4.45;;;2.78;;
29730;SDS011;16639;51.488;0.152;2023-02-04T13:31:06;10.43;;;4.50;;
29730;SDS011;16639;51.488;0.152;2023-02-04T13:33:34;13.60;;;3.83;;
29730;SDS011;16639;51.488;0.152;2023-02-04T13:36:02;6.47;;;3.20;;
29730;SDS011;16639;51.488;0.152;2023-02-04T13:38:30;9.77;;;3.35;;
29730;SDS011;16639;51.488;0.152;2023-02-04T13:40:57;7.47;;;4.35;;
29730;SDS011;16639;51.488;0.152;2023-02-04T13:43:25;7.47;;;3.30;;
29730;SDS011;16639;51.488;0.152;2023-02-04T13:45:52;11.90;;;3.38;;
29730;SDS011;16639;51.488;0.152;2023-02-04T13:48:19;5.80;;;3.58;;
29730;SDS011;16639;51.488;0.152;2023-02-04T13:50:48;12.35;;;4.25;;
29730;SDS011;16639;51.488;0.152;2023-02-04T13:53:16;9.43;;;4.55;;
29730;SDS011;16639;51.488;0.152;2023-02-04T13:55:43;18.65;;;4.32;;
29730;SDS011;16639;51.488;0.152;2023-02-04T13:58:11;11.07;;;4.28;;
29730;SDS011;16639;51.488;0.152;2023-02-04T14:00:39;7.13;;;4.10;;
29730;SDS011;16639;51.488;0.152;2023-02-04T14:03:07;7.72;;;4.05;;
29730;SDS011;16639;51.488;0.152;2023-02-04T14:05:34;15.10;;;5.20;;
29730;SDS011;16639;51.488;0.152;2023-02-04T14:08:01;10.15;;;4.45;;
29730;SDS011;16639;51.488;0.152;2023-02-04T14:10:29;7.57;;;3.55;;
29730;SDS011;16639;51.488;0.152;2023-02-04T14:12:57;5.25;;;3.20;;
29730;SDS011;16639;51.488;0.152;2023-02-04T14:15:24;8.45;;;3.40;;
29730;SDS011;16639;51.488;0.152;2023-02-04T14:17:52;5.20;;;3.00;;
29730;SDS011;16639;51.488;0.152;2023-02-04T14:20:19;12.57;;;3.53;;
29730;SDS011;16639;51.488;0.152;2023-02-04T14:22:46;13.05;;;3.78;;
29730;SDS011;16639;51.488;0.152;2023-02-04T14:25:14;10.18;;;4.80;;
29730;SDS011;16639;51.488;0.152;2023-02-04T14:27:41;9.88;;;4.10;;
29730;SDS011;16639;51.488;0.152;2023-02-04T14:30:19;7.63;;;3.63;;
29730;SDS011;16639;51.488;0.152;2023-02-04T14:32:51;6.15;;;3.60;;
29730;SDS011;16639;51.488;0.152;2023-02-04T14:35:18;5.25;;;3.30;;
29730;SDS011;16639;51.488;0.152;2023-02-04T14:37:46;4.63;;;3.08;;
29730;SDS011;16639;51.488;0.152;2023-02-04T14:40:14;11.90;;;3.25;;
29730;SDS011;16639;51.488;0.152;2023-02-04T14:42:43;12.40;;;3.72;;
29730;SDS011;16639;51.488;0.152;2023-02-04T14:45:12;10.50;;;2.40;;
29730;SDS011;16639;51.488;0.152;2023-02-04T14:47:40;7.28;;;2.72;;
29730;SDS011;16639;51.488;0.152;2023-02-04T14:50:10;8.15;;;2.85;;
29730;SDS011;16639;51.488;0.152;2023-02-04T14:52:41;5.85;;;2.63;;
29730;SDS011;16639;51.488;0.152;2023-02-04T14:55:08;3.95;;;2.50;;
29730;SDS011;16639;51.488;0.152;2023-02-04T14:57:37;5.13;;;2.80;;
29730;SDS011;16639;51.488;0.152;2023-02-04T15:00:05;8.43;;;3.25;;
29730;SDS011;16639;51.488;0.152;2023-02-04T15:02:33;8.82;;;3.70;;
29730;SDS011;16639;51.488;0.152;2023-02-04T15:05:00;5.43;;;2.33;;
29730;SDS011;16639;51.488;0.152;2023-02-04T15:07:28;8.98;;;3.90;;
29730;SDS011;16639;51.488;0.152;2023-02-04T15:09:55;7.00;;;4.13;;
29730;SDS011;16639;51.488;0.152;2023-02-04T15:12:23;6.30;;;3.30;;
29730;SDS011;16639;51.488;0.152;2023-02-04T15:14:50;5.93;;;2.33;;
29730;SDS011;16639;51.488;0.152;2023-02-04T15:17:18;6.07;;;2.45;;
29730;SDS011;16639;51.488;0.152;2023-02-04T15:19:46;6.65;;;2.00;;
29730;SDS011;16639;51.488;0.152;2023-02-04T15:22:13;11.35;;;2.08;;
29730;SDS011;16639;51.488;0.152;2023-02-04T15:24:41;6.57;;;2.50;;
29730;SDS011;16639;51.488;0.152;2023-02-04T15:27:08;6.53;;;1.83;;
29730;SDS011;16639;51.488;0.152;2023-02-04T15:29:36;3.90;;;2.13;;